createdAt,value
2023-05-02T00:00:00.490Z,87
2023-05-02T00:05:00.171Z,86.7
2023-05-02T00:10:00.335Z,88.1
2023-05-02T00:15:00.164Z,88.3
2023-05-02T00:20:00.473Z,88.8
2023-05-02T00:25:00.195Z,75.1
2023-05-02T00:30:00.455Z,76.4
2023-05-02T00:35:00.156Z,77.1
2023-05-02T00:40:00.349Z,77.4
2023-05-02T00:45:00.126Z,77.8
2023-05-02T00:50:00.383Z,78
2023-05-02T00:55:00.143Z,79.7
2023-05-02T01:00:00.346Z,80.4
2023-05-02T01:05:00.196Z,81.1
2023-05-02T01:10:00.344Z,81.7
2023-05-02T01:15:00.173Z,82.2
2023-05-02T01:20:00.462Z,82.8
2023-05-02T01:25:00.137Z,83.3
2023-05-02T01:30:00.394Z,84
2023-05-02T01:35:00.146Z,84.4
2023-05-02T01:40:00.489Z,84.1
2023-05-02T01:45:00.175Z,84.4
2023-05-02T01:50:00.383Z,84.2
2023-05-02T01:55:00.143Z,83.8
2023-05-02T02:00:00.566Z,83.4
2023-05-02T02:05:00.177Z,82.9
2023-05-02T02:10:00.342Z,82.5
2023-05-02T02:15:00.144Z,82.1
2023-05-02T02:20:00.532Z,82.1
2023-05-02T02:25:00.148Z,82.1
2023-05-02T02:30:00.424Z,82.5
2023-05-02T02:35:00.144Z,82.5
2023-05-02T02:40:00.493Z,82.6
2023-05-02T02:45:00.150Z,82.8
2023-05-02T02:50:00.352Z,82.8
2023-05-02T02:55:00.154Z,83.1
2023-05-02T03:00:00.376Z,83.3
2023-05-02T03:05:00.163Z,83.5
2023-05-02T03:10:00.575Z,83.5
2023-05-02T03:15:00.136Z,83.4
2023-05-02T03:20:00.452Z,83.4
2023-05-02T03:25:00.143Z,83.5
2023-05-02T03:30:00.325Z,83.5
2023-05-02T03:35:00.130Z,83.6
2023-05-02T03:40:00.378Z,83.7
2023-05-02T03:45:00.140Z,83.9
2023-05-02T03:50:00.784Z,84
2023-05-02T03:55:00.155Z,84.1
2023-05-02T04:00:00.372Z,84.4
2023-05-02T04:05:00.132Z,84.3
2023-05-02T04:10:00.344Z,84.2
2023-05-02T04:15:00.151Z,84.2
2023-05-02T04:20:02.448Z,84.2
2023-05-02T04:25:00.160Z,84.3
2023-05-02T04:30:00.587Z,84.5
2023-05-02T04:35:00.180Z,84.5
2023-05-02T04:40:00.392Z,84.6
2023-05-02T04:45:00.173Z,84.7
2023-05-02T04:50:00.708Z,84.6
2023-05-02T04:55:00.170Z,84.6
2023-05-02T05:00:00.524Z,84.7
2023-05-02T05:05:00.189Z,84.5
2023-05-02T05:10:00.547Z,84.2
2023-05-02T05:15:00.138Z,83.8
2023-05-02T05:20:00.373Z,83.4
2023-05-02T05:25:00.165Z,83
2023-05-02T05:30:00.451Z,82.9
2023-05-02T05:35:00.158Z,82.6
2023-05-02T05:40:00.552Z,82.3
2023-05-02T05:45:00.160Z,82.1
2023-05-02T05:50:00.447Z,81.7
2023-05-02T05:55:00.131Z,81.4
2023-05-02T06:00:00.571Z,81.4
2023-05-02T06:05:00.292Z,81.3
2023-05-02T06:10:00.459Z,81
2023-05-02T06:15:00.172Z,80.5
2023-05-02T06:20:00.396Z,80.2
2023-05-02T06:25:00.144Z,79.9
2023-05-02T06:30:00.311Z,80.8
2023-05-02T06:35:00.242Z,80.9
2023-05-02T06:40:00.414Z,80.9
2023-05-02T06:45:00.159Z,80.7
2023-05-02T06:50:00.473Z,80.2
2023-05-02T06:55:00.140Z,80
2023-05-02T07:00:00.392Z,79.4
2023-05-02T07:05:00.154Z,78.7
2023-05-02T07:10:00.339Z,78.1
2023-05-02T07:15:00.168Z,77.6
2023-05-02T07:20:00.425Z,76.7
2023-05-02T07:25:00.167Z,75.6
2023-05-02T07:30:00.509Z,74.7
2023-05-02T07:35:00.146Z,73.9
2023-05-02T07:40:00.310Z,73.1
2023-05-02T07:45:00.210Z,72
2023-05-02T07:50:00.633Z,71.8
2023-05-02T07:55:00.128Z,71.2
2023-05-02T08:00:00.378Z,70.6
2023-05-02T08:05:00.230Z,69.9
2023-05-02T08:10:00.350Z,70.1
2023-05-02T08:15:00.170Z,70.1
2023-05-02T08:20:01.541Z,71.2
2023-05-02T08:25:00.155Z,71
2023-05-02T08:30:01.102Z,72.2
2023-05-02T08:35:00.178Z,74.7
2023-05-02T08:40:00.338Z,77.5
2023-05-02T08:45:00.155Z,80.2
2023-05-02T08:50:00.702Z,82.3
2023-05-02T08:55:00.565Z,83.3
2023-05-02T09:00:00.213Z,83.9
2023-05-02T09:05:00.601Z,84.7
2023-05-02T09:10:00.132Z,85.5
2023-05-02T09:15:00.361Z,85.5
2023-05-02T09:20:00.197Z,86.8
2023-05-02T09:25:00.465Z,83.8
2023-05-02T09:30:00.194Z,78.9
2023-05-02T09:35:00.304Z,75.8
2023-05-02T09:40:00.206Z,73.3
2023-05-02T09:45:00.551Z,71.3
2023-05-02T09:50:00.152Z,67.8
2023-05-02T09:55:00.371Z,63.8
2023-05-02T10:00:00.188Z,65.3
2023-05-02T10:05:00.399Z,65.9
2023-05-02T10:10:00.135Z,64.8
2023-05-02T10:15:00.587Z,63.7
2023-05-02T10:20:00.232Z,64.3
2023-05-02T10:25:00.346Z,65.3
2023-05-02T10:30:00.158Z,62.7
2023-05-02T10:35:00.388Z,61.4
2023-05-02T10:40:00.152Z,60.4
2023-05-02T10:45:00.578Z,51.3
2023-05-02T10:50:00.189Z,46.7
2023-05-02T10:55:00.370Z,47.3
2023-05-02T11:00:00.139Z,47.8
2023-05-02T11:05:00.559Z,47.7
2023-05-02T11:10:00.142Z,46.2
2023-05-02T11:15:00.671Z,45.7
2023-05-02T11:20:00.221Z,45.8
2023-05-02T11:25:00.401Z,45.1
2023-05-02T11:30:00.273Z,44.1
2023-05-02T11:35:00.511Z,45.8
2023-05-02T11:40:00.136Z,46.6
2023-05-02T11:45:00.331Z,46.8
2023-05-02T11:50:00.256Z,48.4
2023-05-02T11:55:00.284Z,51.8
2023-05-02T12:00:00.167Z,59.3
2023-05-02T12:05:00.399Z,64.6
2023-05-02T12:10:00.289Z,69.8
2023-05-02T12:15:00.326Z,70.9
2023-05-02T12:20:00.223Z,71
2023-05-02T12:25:00.458Z,72.6
2023-05-02T12:30:00.551Z,73.7
2023-05-02T12:35:00.209Z,74.2
2023-05-02T12:40:00.238Z,74.9
2023-05-02T12:45:00.216Z,75.1
2023-05-02T12:50:00.390Z,73.8
2023-05-02T12:55:00.227Z,71.7
2023-05-02T13:00:00.545Z,71.2
2023-05-02T13:05:00.165Z,70.6
2023-05-02T13:10:00.425Z,70
2023-05-02T13:15:00.243Z,68.8
2023-05-02T13:20:01.728Z,66
2023-05-02T13:25:00.157Z,65.7
2023-05-02T13:30:00.581Z,65.4
2023-05-02T13:35:00.188Z,65.3
2023-05-02T13:40:00.427Z,64.9
2023-05-02T13:45:00.138Z,62.9
2023-05-02T13:50:00.805Z,62.7
2023-05-02T13:55:00.186Z,62.8
2023-05-02T14:00:00.580Z,62.2
2023-05-02T14:05:00.194Z,63
2023-05-02T14:10:00.595Z,63.7
2023-05-02T14:15:00.150Z,64.2
2023-05-02T14:20:00.489Z,64
2023-05-02T14:25:00.143Z,64
2023-05-02T14:30:00.635Z,64.1
2023-05-02T14:35:00.156Z,64.5
2023-05-02T14:40:00.267Z,64.9
2023-05-02T14:45:00.158Z,65.8
2023-05-02T14:50:00.523Z,65.3
2023-05-02T14:55:00.146Z,63.9
2023-05-02T15:00:00.195Z,63
2023-05-02T15:05:00.196Z,62.7
2023-05-02T15:10:00.361Z,60.8
2023-05-02T15:15:00.178Z,58.7
2023-05-02T15:20:00.366Z,56.5
2023-05-02T15:25:00.881Z,55
2023-05-02T15:30:00.349Z,54.6
2023-05-02T15:35:00.211Z,53.7
2023-05-02T15:40:00.435Z,54.3
2023-05-02T15:45:00.188Z,53.4
2023-05-02T15:50:00.396Z,53.2
2023-05-02T15:55:00.132Z,53.4
2023-05-02T16:00:00.386Z,53.9
2023-05-02T16:05:00.187Z,55.5
2023-05-02T16:10:00.563Z,56
2023-05-02T16:15:01.786Z,51.7
2023-05-02T16:20:00.415Z,50.4
2023-05-02T16:25:00.161Z,49.7
2023-05-02T16:30:00.487Z,49.2
2023-05-02T16:35:00.154Z,50.6
2023-05-02T16:40:00.292Z,52.1
2023-05-02T16:45:00.166Z,62.7
2023-05-02T16:50:00.359Z,99.9
2023-05-02T16:55:00.128Z,99.9
2023-05-02T17:00:00.378Z,99.9
2023-05-02T17:05:00.257Z,99.9
2023-05-02T17:10:00.482Z,99.9
2023-05-02T17:15:01.534Z,99.9
2023-05-02T17:20:00.469Z,99.9
2023-05-02T17:25:00.166Z,99.9
2023-05-02T17:30:00.727Z,99.9
2023-05-02T17:35:00.181Z,99.9
2023-05-02T17:40:00.467Z,99.9
2023-05-02T17:45:00.166Z,99.9
2023-05-02T17:50:00.598Z,99.9
2023-05-02T17:55:00.136Z,99.9
2023-05-02T18:00:00.636Z,99.9
2023-05-02T18:05:00.249Z,99.9
2023-05-02T18:10:00.494Z,99.9
2023-05-02T18:15:00.572Z,99.9
2023-05-02T18:20:00.646Z,99.9
2023-05-02T18:25:00.318Z,99.9
2023-05-02T18:30:00.238Z,99.9
2023-05-02T18:35:00.320Z,99.9
2023-05-02T18:40:00.146Z,99.9
2023-05-02T18:45:00.461Z,99.9
2023-05-02T18:50:00.186Z,99.9
2023-05-02T18:55:00.186Z,99.9
2023-05-02T19:00:00.258Z,99.9
2023-05-02T19:05:00.538Z,99.9
2023-05-02T19:10:00.253Z,99.9
2023-05-02T19:15:00.462Z,99.9
2023-05-02T19:20:00.276Z,99.9
2023-05-02T19:25:00.376Z,99.9
2023-05-02T19:30:00.233Z,99.9
2023-05-02T19:35:00.425Z,99.9
2023-05-02T19:40:00.196Z,99.9
2023-05-02T19:45:00.488Z,99.9
2023-05-02T19:50:00.226Z,99.9
2023-05-02T19:55:00.269Z,99.9
2023-05-02T20:00:00.360Z,99.9
2023-05-02T20:05:00.170Z,99.9
2023-05-02T20:10:00.468Z,99.9
2023-05-02T20:15:00.114Z,99.9
2023-05-02T20:20:00.392Z,99.9
2023-05-02T20:25:00.170Z,99.9
2023-05-02T20:30:00.422Z,99.9
2023-05-02T20:35:00.207Z,99.9
2023-05-02T20:40:00.370Z,99.9
2023-05-02T20:45:00.184Z,99.9
2023-05-02T20:50:00.292Z,99.9
2023-05-02T20:55:00.223Z,99.9
2023-05-02T21:00:00.682Z,99.9
2023-05-02T21:05:00.205Z,99.9
2023-05-02T21:10:00.445Z,99.9
2023-05-02T21:15:00.171Z,99.9
2023-05-02T21:20:00.256Z,99.9
2023-05-02T21:25:00.134Z,99.9
2023-05-02T21:30:00.671Z,99.9
2023-05-02T21:35:00.269Z,99.9
2023-05-02T21:40:00.517Z,99.9
2023-05-02T21:45:00.150Z,99.9
2023-05-02T21:50:00.546Z,99.9
2023-05-02T21:55:00.135Z,99.9
2023-05-02T22:00:00.679Z,99.9
2023-05-02T22:05:00.176Z,99.9
2023-05-02T22:10:00.361Z,99.9
2023-05-02T22:15:00.163Z,99.9
2023-05-02T22:20:00.330Z,99.9
2023-05-02T22:25:00.150Z,99.9
2023-05-02T22:30:00.602Z,99.9
2023-05-02T22:35:00.173Z,99.9
2023-05-02T22:40:00.399Z,99.9
2023-05-02T22:45:00.163Z,99.9
2023-05-02T22:50:00.510Z,99.9
2023-05-02T22:55:00.151Z,99.9
2023-05-02T23:00:00.497Z,99.9
2023-05-02T23:05:00.162Z,99.9
2023-05-02T23:10:00.430Z,99.9
2023-05-02T23:15:00.180Z,99.9
2023-05-02T23:20:00.509Z,99.9
2023-05-02T23:25:00.165Z,99.9
2023-05-02T23:30:00.667Z,99.9
2023-05-02T23:35:00.208Z,99.9
2023-05-02T23:40:00.345Z,99.9
2023-05-02T23:45:00.125Z,99.9
2023-05-02T23:50:00.516Z,99.9
2023-05-02T23:55:00.131Z,99.9
